sensor_id;sensor_type;location;lat;lon;timestamp;pressure;altitude;pressure_sealevel;temperature;humidity
11525;BME280;5819;49.648;8.330;2023-08-17T00:00:01;100546.03;;;19.16;100.00
11525;BME280;5819;49.648;8.330;2023-08-17T00:02:30;100536.38;;;19.28;100.00
11525;BME280;5819;49.648;8.330;2023-08-17T00:04:59;100538.63;;;19.21;100.00
11525;BME280;5819;49.648;8.330;2023-08-17T00:07:27;100544.59;;;19.12;100.00
11525;BME280;5819;49.648;8.330;2023-08-17T00:09:55;100541.63;;;19.16;100.00
11525;BME280;5819;49.648;8.330;2023-08-17T00:12:23;100538.63;;;19.21;100.00
11525;BME280;5819;49.648;8.330;2023-08-17T00:14:52;100528.94;;;19.22;100.00
11525;BME280;5819;49.648;8.330;2023-08-17T00:17:21;100535.03;;;19.22;100.00
11525;BME280;5819;49.648;8.330;2023-08-17T00:19:50;100540.78;;;19.16;100.00
11525;BME280;5819;49.648;8.330;2023-08-17T00:22:18;100542.91;;;19.11;100.00
11525;BME280;5819;49.648;8.330;2023-08-17T00:24:46;100548.69;;;19.16;100.00
11525;BME280;5819;49.648;8.330;2023-08-17T00:27:14;100540.78;;;19.16;100.00
11525;BME280;5819;49.648;8.330;2023-08-17T00:29:42;100534.16;;;19.10;100.00
11525;BME280;5819;49.648;8.330;2023-08-17T00:32:11;100527.22;;;19.09;100.00
11525;BME280;5819;49.648;8.330;2023-08-17T00:34:39;100524.41;;;19.00;100.00
11525;BME280;5819;49.648;8.330;2023-08-17T00:37:07;100525.38;;;19.10;100.00
11525;BME280;5819;49.648;8.330;2023-08-17T00:39:35;100523.94;;;19.06;100.00
11525;BME280;5819;49.648;8.330;2023-08-17T00:42:03;100515.22;;;19.05;100.00
11525;BME280;5819;49.648;8.330;2023-08-17T00:44:31;100517.59;;;18.97;100.00
11525;BME280;5819;49.648;8.330;2023-08-17T00:46:59;100511.91;;;18.91;100.00
11525;BME280;5819;49.648;8.330;2023-08-17T00:49:29;100516.06;;;18.82;100.00
11525;BME280;5819;49.648;8.330;2023-08-17T00:51:57;100514.03;;;18.86;100.00
11525;BME280;5819;49.648;8.330;2023-08-17T00:54:27;100513.56;;;18.81;100.00
11525;BME280;5819;49.648;8.330;2023-08-17T00:56:55;100512.47;;;18.83;100.00
11525;BME280;5819;49.648;8.330;2023-08-17T00:59:23;100505.41;;;18.84;100.00
11525;BME280;5819;49.648;8.330;2023-08-17T01:01:51;100512.56;;;18.82;100.00
11525;BME280;5819;49.648;8.330;2023-08-17T01:04:20;100509.00;;;18.83;100.00
11525;BME280;5819;49.648;8.330;2023-08-17T01:06:49;100507.44;;;18.80;100.00
11525;BME280;5819;49.648;8.330;2023-08-17T01:09:18;100513.94;;;18.87;100.00
11525;BME280;5819;49.648;8.330;2023-08-17T01:11:49;100506.97;;;18.86;100.00
11525;BME280;5819;49.648;8.330;2023-08-17T01:14:25;100510.06;;;18.80;100.00
11525;BME280;5819;49.648;8.330;2023-08-17T01:16:59;100511.03;;;18.79;100.00
11525;BME280;5819;49.648;8.330;2023-08-17T01:19:29;100512.09;;;18.77;100.00
11525;BME280;5819;49.648;8.330;2023-08-17T01:22:02;100513.16;;;18.74;100.00
11525;BME280;5819;49.648;8.330;2023-08-17T01:24:32;100515.06;;;18.72;100.00
11525;BME280;5819;49.648;8.330;2023-08-17T01:27:00;100520.09;;;18.75;100.00
11525;BME280;5819;49.648;8.330;2023-08-17T01:29:28;100520.91;;;18.64;100.00
11525;BME280;5819;49.648;8.330;2023-08-17T01:32:02;100518.97;;;18.66;100.00
11525;BME280;5819;49.648;8.330;2023-08-17T01:34:34;100505.38;;;18.73;100.00
11525;BME280;5819;49.648;8.330;2023-08-17T01:37:06;100501.03;;;18.72;100.00
11525;BME280;5819;49.648;8.330;2023-08-17T01:39:38;100498.13;;;18.63;100.00
11525;BME280;5819;49.648;8.330;2023-08-17T01:42:07;100500.06;;;18.61;100.00
11525;BME280;5819;49.648;8.330;2023-08-17T01:44:36;100502.56;;;18.63;100.00
11525;BME280;5819;49.648;8.330;2023-08-17T01:47:04;100501.00;;;18.60;100.00
11525;BME280;5819;49.648;8.330;2023-08-17T01:49:32;100499.53;;;18.56;100.00
11525;BME280;5819;49.648;8.330;2023-08-17T01:51:59;100495.06;;;18.69;100.00
11525;BME280;5819;49.648;8.330;2023-08-17T01:54:29;100489.63;;;18.60;100.00
11525;BME280;5819;49.648;8.330;2023-08-17T01:56:58;100497.41;;;18.61;100.00
11525;BME280;5819;49.648;8.330;2023-08-17T01:59:26;100500.72;;;18.52;100.00
11525;BME280;5819;49.648;8.330;2023-08-17T02:01:54;100492.03;;;18.50;100.00
11525;BME280;5819;49.648;8.330;2023-08-17T02:04:21;100491.31;;;18.48;100.00
11525;BME280;5819;49.648;8.330;2023-08-17T02:06:49;100490.81;;;18.43;100.00
11525;BME280;5819;49.648;8.330;2023-08-17T02:09:18;100495.13;;;18.44;100.00
11525;BME280;5819;49.648;8.330;2023-08-17T02:11:45;100495.38;;;18.41;100.00
11525;BME280;5819;49.648;8.330;2023-08-17T02:14:15;100493.78;;;18.39;100.00
11525;BME280;5819;49.648;8.330;2023-08-17T02:16:43;100491.66;;;18.44;100.00
11525;BME280;5819;49.648;8.330;2023-08-17T02:19:11;100486.94;;;18.36;100.00
11525;BME280;5819;49.648;8.330;2023-08-17T02:21:41;100497.25;;;18.39;100.00
11525;BME280;5819;49.648;8.330;2023-08-17T02:24:09;100485.34;;;18.34;100.00
11525;BME280;5819;49.648;8.330;2023-08-17T02:26:37;100491.69;;;18.31;100.00
11525;BME280;5819;49.648;8.330;2023-08-17T02:29:07;100483.56;;;18.34;100.00
11525;BME280;5819;49.648;8.330;2023-08-17T02:31:37;100475.22;;;18.40;100.00
11525;BME280;5819;49.648;8.330;2023-08-17T02:34:05;100465.63;;;18.39;100.00
11525;BME280;5819;49.648;8.330;2023-08-17T02:36:33;100475.22;;;18.40;100.00
11525;BME280;5819;49.648;8.330;2023-08-17T02:39:02;100473.25;;;18.31;100.00
11525;BME280;5819;49.648;8.330;2023-08-17T02:41:30;100475.03;;;18.31;100.00
11525;BME280;5819;49.648;8.330;2023-08-17T02:43:59;100476.28;;;18.38;100.00
11525;BME280;5819;49.648;8.330;2023-08-17T02:46:27;100482.06;;;18.43;100.00
11525;BME280;5819;49.648;8.330;2023-08-17T02:48:56;100471.47;;;18.32;100.00
11525;BME280;5819;49.648;8.330;2023-08-17T02:51:25;100479.59;;;18.29;100.00
11525;BME280;5819;49.648;8.330;2023-08-17T02:53:53;100471.91;;;18.25;100.00
11525;BME280;5819;49.648;8.330;2023-08-17T02:56:20;100480.22;;;18.32;100.00
11525;BME280;5819;49.648;8.330;2023-08-17T02:58:48;100478.47;;;18.44;100.00
11525;BME280;5819;49.648;8.330;2023-08-17T03:01:16;100478.44;;;18.33;100.00
11525;BME280;5819;49.648;8.330;2023-08-17T03:03:44;100477.81;;;18.29;100.00
11525;BME280;5819;49.648;8.330;2023-08-17T03:06:13;100474.91;;;18.45;100.00
11525;BME280;5819;49.648;8.330;2023-08-17T03:08:41;100470.91;;;18.39;100.00
11525;BME280;5819;49.648;8.330;2023-08-17T03:11:10;100470.81;;;18.41;100.00
11525;BME280;5819;49.648;8.330;2023-08-17T03:13:38;100478.91;;;18.38;100.00
11525;BME280;5819;49.648;8.330;2023-08-17T03:16:06;100475.69;;;18.58;100.00
11525;BME280;5819;49.648;8.330;2023-08-17T03:18:34;100465.97;;;18.35;100.00
11525;BME280;5819;49.648;8.330;2023-08-17T03:21:01;100474.09;;;18.32;100.00
11525;BME280;5819;49.648;8.330;2023-08-17T03:23:32;100468.22;;;18.28;100.00
11525;BME280;5819;49.648;8.330;2023-08-17T03:26:01;100469.56;;;18.34;100.00
11525;BME280;5819;49.648;8.330;2023-08-17T03:28:29;100473.34;;;18.30;100.00
11525;BME280;5819;49.648;8.330;2023-08-17T03:30:57;100475.47;;;18.37;100.00
11525;BME280;5819;49.648;8.330;2023-08-17T03:33:25;100480.09;;;18.34;100.00
11525;BME280;5819;49.648;8.330;2023-08-17T03:35:53;100484.19;;;18.38;100.00
11525;BME280;5819;49.648;8.330;2023-08-17T03:38:21;100483.47;;;18.36;100.00
11525;BME280;5819;49.648;8.330;2023-08-17T03:40:50;100480.81;;;18.36;100.00
11525;BME280;5819;49.648;8.330;2023-08-17T03:43:21;100483.78;;;18.31;100.00
11525;BME280;5819;49.648;8.330;2023-08-17T03:45:49;100482.28;;;18.40;100.00
11525;BME280;5819;49.648;8.330;2023-08-17T03:48:17;100482.72;;;18.34;100.00
11525;BME280;5819;49.648;8.330;2023-08-17T03:50:45;100482.94;;;18.31;100.00
11525;BME280;5819;49.648;8.330;2023-08-17T03:53:13;100487.94;;;18.22;100.00
11525;BME280;5819;49.648;8.330;2023-08-17T03:55:45;100484.03;;;18.28;100.00
11525;BME280;5819;49.648;8.330;2023-08-17T03:58:14;100491.72;;;18.18;100.00
11525;BME280;5819;49.648;8.330;2023-08-17T04:00:48;100491.63;;;18.20;100.00
11525;BME280;5819;49.648;8.330;2023-08-17T04:03:20;100492.19;;;18.12;100.00
11525;BME280;5819;49.648;8.330;2023-08-17T04:05:48;100501.75;;;18.13;100.00
11525;BME280;5819;49.648;8.330;2023-08-17T04:08:16;100502.81;;;18.11;100.00
11525;BME280;5819;49.648;8.330;2023-08-17T04:10:44;100503.03;;;18.08;100.00
11525;BME280;5819;49.648;8.330;2023-08-17T04:13:12;100505.34;;;18.12;100.00
11525;BME280;5819;49.648;8.330;2023-08-17T04:15:41;100505.84;;;18.17;100.00
11525;BME280;5819;49.648;8.330;2023-08-17T04:18:09;100506.59;;;18.19;100.00
11525;BME280;5819;49.648;8.330;2023-08-17T04:20:37;100511.94;;;18.18;100.00
11525;BME280;5819;49.648;8.330;2023-08-17T04:23:05;100516.38;;;18.17;100.00
11525;BME280;5819;49.648;8.330;2023-08-17T04:25:33;100517.03;;;18.21;100.00
11525;BME280;5819;49.648;8.330;2023-08-17T04:28:01;100514.16;;;18.24;100.00
11525;BME280;5819;49.648;8.330;2023-08-17T04:30:30;100529.63;;;18.29;100.00
11525;BME280;5819;49.648;8.330;2023-08-17T04:33:01;100520.91;;;18.28;100.00
11525;BME280;5819;49.648;8.330;2023-08-17T04:35:29;100522.34;;;18.32;100.00
11525;BME280;5819;49.648;8.330;2023-08-17T04:37:57;100531.19;;;18.31;100.00
11525;BME280;5819;49.648;8.330;2023-08-17T04:40:26;100532.91;;;18.32;100.00
11525;BME280;5819;49.648;8.330;2023-08-17T04:42:57;100523.59;;;18.39;100.00
11525;BME280;5819;49.648;8.330;2023-08-17T04:45:26;100523.69;;;18.38;100.00
11525;BME280;5819;49.648;8.330;2023-08-17T04:47:54;100514.84;;;18.39;100.00
11525;BME280;5819;49.648;8.330;2023-08-17T04:50:24;100515.47;;;18.42;100.00
11525;BME280;5819;49.648;8.330;2023-08-17T04:52:53;100513.72;;;18.66;100.00
11525;BME280;5819;49.648;8.330;2023-08-17T04:55:21;100512.63;;;18.45;100.00
11525;BME280;5819;49.648;8.330;2023-08-17T04:57:49;100519.88;;;18.54;100.00
11525;BME280;5819;49.648;8.330;2023-08-17T05:00:17;100518.22;;;18.53;100.00
11525;BME280;5819;49.648;8.330;2023-08-17T05:02:51;100524.50;;;18.51;100.00
11525;BME280;5819;49.648;8.330;2023-08-17T05:05:20;100522.31;;;18.57;100.00
11525;BME280;5819;49.648;8.330;2023-08-17T05:07:50;100523.03;;;18.59;100.00
11525;BME280;5819;49.648;8.330;2023-08-17T05:10:18;100525.75;;;18.58;100.00
11525;BME280;5819;49.648;8.330;2023-08-17T05:12:47;100526.75;;;18.57;100.00
11525;BME280;5819;49.648;8.330;2023-08-17T05:15:15;100535.34;;;18.59;100.00
11525;BME280;5819;49.648;8.330;2023-08-17T05:17:43;100538.13;;;18.57;100.00
11525;BME280;5819;49.648;8.330;2023-08-17T05:20:12;100538.72;;;18.61;100.00
11525;BME280;5819;49.648;8.330;2023-08-17T05:22:41;100539.16;;;18.79;100.00
11525;BME280;5819;49.648;8.330;2023-08-17T05:25:10;100541.66;;;18.69;100.00
11525;BME280;5819;49.648;8.330;2023-08-17T05:27:40;100536.16;;;18.72;100.00
11525;BME280;5819;49.648;8.330;2023-08-17T05:30:10;100544.38;;;18.67;100.00
11525;BME280;5819;49.648;8.330;2023-08-17T05:32:40;100554.50;;;18.74;100.00
11525;BME280;5819;49.648;8.330;2023-08-17T05:35:09;100548.75;;;18.80;100.00
11525;BME280;5819;49.648;8.330;2023-08-17T05:37:37;100548.16;;;18.76;100.00
11525;BME280;5819;49.648;8.330;2023-08-17T05:40:06;100548.88;;;18.78;100.00
11525;BME280;5819;49.648;8.330;2023-08-17T05:42:36;100550.31;;;18.82;100.00
11525;BME280;5819;49.648;8.330;2023-08-17T05:45:06;100551.78;;;18.86;100.00
11525;BME280;5819;49.648;8.330;2023-08-17T05:47:34;100543.78;;;18.88;100.00
11525;BME280;5819;49.648;8.330;2023-08-17T05:50:02;100548.72;;;18.92;100.00
11525;BME280;5819;49.648;8.330;2023-08-17T05:52:31;100545.00;;;18.95;100.00
11525;BME280;5819;49.648;8.330;2023-08-17T05:55:01;100545.03;;;19.06;100.00
11525;BME280;5819;49.648;8.330;2023-08-17T05:57:29;100541.63;;;19.16;100.00
11525;BME280;5819;49.648;8.330;2023-08-17T05:59:59;100537.13;;;19.06;100.00
11525;BME280;5819;49.648;8.330;2023-08-17T06:02:27;100548.41;;;19.08;100.00
11525;BME280;5819;49.648;8.330;2023-08-17T06:04:56;100546.28;;;19.13;100.00
11525;BME280;5819;49.648;8.330;2023-08-17T06:07:24;100541.72;;;19.15;100.00
11525;BME280;5819;49.648;8.330;2023-08-17T06:09:52;100547.84;;;19.15;100.00
11525;BME280;5819;49.648;8.330;2023-08-17T06:12:20;100540.66;;;19.17;100.00
11525;BME280;5819;49.648;8.330;2023-08-17T06:14:48;100543.41;;;19.16;100.00
11525;BME280;5819;49.648;8.330;2023-08-17T06:17:18;100541.72;;;19.15;100.00
11525;BME280;5819;49.648;8.330;2023-08-17T06:19:46;100544.25;;;19.16;100.00
11525;BME280;5819;49.648;8.330;2023-08-17T06:22:14;100542.31;;;19.18;100.00
11525;BME280;5819;49.648;8.330;2023-08-17T06:24:42;100540.94;;;19.26;100.00
11525;BME280;5819;49.648;8.330;2023-08-17T06:27:14;100537.81;;;19.32;100.00
11525;BME280;5819;49.648;8.330;2023-08-17T06:29:42;100545.97;;;19.29;100.00
11525;BME280;5819;49.648;8.330;2023-08-17T06:32:10;100541.41;;;19.31;100.00
11525;BME280;5819;49.648;8.330;2023-08-17T06:34:40;100539.56;;;19.44;100.00
11525;BME280;5819;49.648;8.330;2023-08-17T06:37:08;100548.03;;;19.36;100.00
11525;BME280;5819;49.648;8.330;2023-08-17T06:39:36;100543.75;;;19.46;100.00
11525;BME280;5819;49.648;8.330;2023-08-17T06:42:04;100551.63;;;19.35;100.00
11525;BME280;5819;49.648;8.330;2023-08-17T06:44:33;100551.50;;;19.37;100.00
11525;BME280;5819;49.648;8.330;2023-08-17T06:47:01;100558.81;;;19.33;100.00
11525;BME280;5819;49.648;8.330;2023-08-17T06:49:30;100547.41;;;19.33;100.00
11525;BME280;5819;49.648;8.330;2023-08-17T06:52:00;100543.47;;;19.38;100.00
11525;BME280;5819;49.648;8.330;2023-08-17T06:54:28;100537.03;;;19.42;100.00
11525;BME280;5819;49.648;8.330;2023-08-17T06:56:59;100544.00;;;19.54;100.00
11525;BME280;5819;49.648;8.330;2023-08-17T06:59:27;100547.72;;;19.52;100.00
11525;BME280;5819;49.648;8.330;2023-08-17T07:01:56;100539.81;;;19.52;100.00
11525;BME280;5819;49.648;8.330;2023-08-17T07:04:25;100542.22;;;19.55;100.00
11525;BME280;5819;49.648;8.330;2023-08-17T07:06:53;100551.31;;;19.51;100.00
11525;BME280;5819;49.648;8.330;2023-08-17T07:09:23;100547.88;;;19.61;100.00
11525;BME280;5819;49.648;8.330;2023-08-17T07:11:51;100538.38;;;19.59;100.00
11525;BME280;5819;49.648;8.330;2023-08-17T07:14:18;100537.31;;;19.61;100.00
11525;BME280;5819;49.648;8.330;2023-08-17T07:16:48;100540.19;;;19.58;100.00
11525;BME280;5819;49.648;8.330;2023-08-17T07:19:16;100535.41;;;19.75;100.00
11525;BME280;5819;49.648;8.330;2023-08-17T07:21:45;100535.41;;;19.63;100.00
11525;BME280;5819;49.648;8.330;2023-08-17T07:24:14;100531.56;;;19.68;100.00
11525;BME280;5819;49.648;8.330;2023-08-17T07:26:43;100534.09;;;19.69;100.00
11525;BME280;5819;49.648;8.330;2023-08-17T07:29:11;100536.97;;;19.77;100.00
11525;BME280;5819;49.648;8.330;2023-08-17T07:31:39;100535.63;;;19.72;100.00
11525;BME280;5819;49.648;8.330;2023-08-17T07:34:10;100542.84;;;19.92;100.00
11525;BME280;5819;49.648;8.330;2023-08-17T07:36:37;100538.03;;;19.75;100.00
11525;BME280;5819;49.648;8.330;2023-08-17T07:39:05;100538.63;;;19.78;100.00
11525;BME280;5819;49.648;8.330;2023-08-17T07:41:34;100541.28;;;19.78;100.00
11525;BME280;5819;49.648;8.330;2023-08-17T07:44:04;100553.16;;;19.84;100.00
11525;BME280;5819;49.648;8.330;2023-08-17T07:46:32;100560.50;;;19.80;100.00
11525;BME280;5819;49.648;8.330;2023-08-17T07:49:00;100560.84;;;19.76;100.00
11525;BME280;5819;49.648;8.330;2023-08-17T07:51:28;100561.94;;;19.84;100.00
11525;BME280;5819;49.648;8.330;2023-08-17T07:53:57;100554.38;;;19.80;100.00
11525;BME280;5819;49.648;8.330;2023-08-17T07:56:25;100555.56;;;19.76;100.00
11525;BME280;5819;49.648;8.330;2023-08-17T07:58:53;100556.31;;;19.78;100.00
11525;BME280;5819;49.648;8.330;2023-08-17T08:01:23;100552.56;;;19.80;100.00
11525;BME280;5819;49.648;8.330;2023-08-17T08:03:51;100553.78;;;19.98;100.00
11525;BME280;5819;49.648;8.330;2023-08-17T08:06:19;100555.09;;;19.93;100.00
11525;BME280;5819;49.648;8.330;2023-08-17T08:08:47;100555.56;;;19.87;100.00
11525;BME280;5819;49.648;8.330;2023-08-17T08:11:15;100552.09;;;19.86;100.00
11525;BME280;5819;49.648;8.330;2023-08-17T08:13:43;100551.97;;;19.99;100.00
11525;BME280;5819;49.648;8.330;2023-08-17T08:16:11;100542.97;;;20.13;100.00
11525;BME280;5819;49.648;8.330;2023-08-17T08:18:40;100551.97;;;20.21;100.00
11525;BME280;5819;49.648;8.330;2023-08-17T08:21:08;100554.13;;;20.16;100.00
11525;BME280;5819;49.648;8.330;2023-08-17T08:23:36;100549.69;;;20.17;100.00
11525;BME280;5819;49.648;8.330;2023-08-17T08:26:04;100553.91;;;20.08;100.00
11525;BME280;5819;49.648;8.330;2023-08-17T08:28:32;100550.75;;;20.14;100.00
11525;BME280;5819;49.648;8.330;2023-08-17T08:31:01;100544.78;;;20.12;100.00
11525;BME280;5819;49.648;8.330;2023-08-17T08:33:29;100548.72;;;20.06;100.00
11525;BME280;5819;49.648;8.330;2023-08-17T08:35:58;100545.03;;;20.09;100.00
11525;BME280;5819;49.648;8.330;2023-08-17T08:38:26;100537.19;;;20.19;100.00
11525;BME280;5819;49.648;8.330;2023-08-17T08:40:54;100539.00;;;20.18;100.00
11525;BME280;5819;49.648;8.330;2023-08-17T08:43:22;100530.00;;;20.21;100.00
11525;BME280;5819;49.648;8.330;2023-08-17T08:45:51;100527.84;;;20.26;100.00
11525;BME280;5819;49.648;8.330;2023-08-17T08:48:19;100540.47;;;20.33;100.00
11525;BME280;5819;49.648;8.330;2023-08-17T08:50:50;100532.53;;;20.33;100.00
11525;BME280;5819;49.648;8.330;2023-08-17T08:53:24;100536.13;;;20.43;100.00
11525;BME280;5819;49.648;8.330;2023-08-17T08:55:57;100532.84;;;20.51;100.00
11525;BME280;5819;49.648;8.330;2023-08-17T08:58:25;100532.97;;;20.61;100.00
11525;BME280;5819;49.648;8.330;2023-08-17T09:00:54;100530.00;;;20.75;100.00
11525;BME280;5819;49.648;8.330;2023-08-17T09:03:22;100531.97;;;20.73;100.00
11525;BME280;5819;49.648;8.330;2023-08-17T09:05:51;100517.47;;;20.88;100.00
11525;BME280;5819;49.648;8.330;2023-08-17T09:08:24;100517.03;;;21.03;100.00
11525;BME280;5819;49.648;8.330;2023-08-17T09:10:55;100522.78;;;21.09;100.00
11525;BME280;5819;49.648;8.330;2023-08-17T09:13:22;100512.44;;;21.17;100.00
11525;BME280;5819;49.648;8.330;2023-08-17T09:15:50;100524.19;;;21.24;100.00
11525;BME280;5819;49.648;8.330;2023-08-17T09:18:19;100518.44;;;21.39;100.00
11525;BME280;5819;49.648;8.330;2023-08-17T09:20:47;100508.22;;;21.56;100.00
11525;BME280;5819;49.648;8.330;2023-08-17T09:23:16;100511.22;;;21.72;100.00
11525;BME280;5819;49.648;8.330;2023-08-17T09:25:48;100511.09;;;21.94;100.00
11525;BME280;5819;49.648;8.330;2023-08-17T09:28:19;100518.13;;;21.84;100.00
11525;BME280;5819;49.648;8.330;2023-08-17T09:30:54;100508.94;;;21.88;100.00
11525;BME280;5819;49.648;8.330;2023-08-17T09:33:23;100509.13;;;21.66;100.00
11525;BME280;5819;49.648;8.330;2023-08-17T09:35:53;100507.63;;;21.73;100.00
11525;BME280;5819;49.648;8.330;2023-08-17T09:38:24;100513.00;;;21.62;100.00
11525;BME280;5819;49.648;8.330;2023-08-17T09:40:53;100507.03;;;21.69;100.00
11525;BME280;5819;49.648;8.330;2023-08-17T09:43:21;100505.84;;;21.83;100.00
11525;BME280;5819;49.648;8.330;2023-08-17T09:45:49;100521.91;;;21.91;100.00
11525;BME280;5819;49.648;8.330;2023-08-17T09:48:18;100522.72;;;21.82;100.00
11525;BME280;5819;49.648;8.330;2023-08-17T09:50:47;100526.34;;;21.81;100.00
11525;BME280;5819;49.648;8.330;2023-08-17T09:53:17;100525.84;;;21.66;100.00
11525;BME280;5819;49.648;8.330;2023-08-17T09:55:46;100523.78;;;22.00;100.00
11525;BME280;5819;49.648;8.330;2023-08-17T09:58:15;100520.03;;;22.03;100.00
11525;BME280;5819;49.648;8.330;2023-08-17T10:00:44;100517.31;;;22.14;100.00
11525;BME280;5819;49.648;8.330;2023-08-17T10:03:17;100503.06;;;22.15;100.00
11525;BME280;5819;49.648;8.330;2023-08-17T10:05:48;100490.31;;;22.68;100.00
11525;BME280;5819;49.648;8.330;2023-08-17T10:08:22;100493.56;;;23.00;100.00
11525;BME280;5819;49.648;8.330;2023-08-17T10:10:51;100485.13;;;23.43;100.00
11525;BME280;5819;49.648;8.330;2023-08-17T10:13:28;100485.13;;;23.80;100.00
11525;BME280;5819;49.648;8.330;2023-08-17T10:16:02;100495.41;;;23.65;100.00
11525;BME280;5819;49.648;8.330;2023-08-17T10:18:37;100494.22;;;23.50;100.00
11525;BME280;5819;49.648;8.330;2023-08-17T10:21:07;100487.41;;;23.75;100.00
11525;BME280;5819;49.648;8.330;2023-08-17T10:23:38;100487.75;;;23.53;100.00
11525;BME280;5819;49.648;8.330;2023-08-17T10:26:08;100488.47;;;23.55;100.00
11525;BME280;5819;49.648;8.330;2023-08-17T10:28:38;100492.94;;;23.45;100.00
11525;BME280;5819;49.648;8.330;2023-08-17T10:31:07;100486.25;;;23.87;100.00
11525;BME280;5819;49.648;8.330;2023-08-17T10:33:37;100488.16;;;23.95;100.00
11525;BME280;5819;49.648;8.330;2023-08-17T10:36:08;100477.16;;;24.07;100.00
11525;BME280;5819;49.648;8.330;2023-08-17T10:38:36;100485.34;;;24.23;100.00
11525;BME280;5819;49.648;8.330;2023-08-17T10:41:08;100490.50;;;23.70;100.00
11525;BME280;5819;49.648;8.330;2023-08-17T10:43:57;100474.25;;;23.83;100.00
11525;BME280;5819;49.648;8.330;2023-08-17T10:46:33;100479.81;;;23.80;100.00
11525;BME280;5819;49.648;8.330;2023-08-17T10:49:05;100471.75;;;23.99;100.00
11525;BME280;5819;49.648;8.330;2023-08-17T10:51:34;100483.03;;;23.84;100.00
11525;BME280;5819;49.648;8.330;2023-08-17T10:54:03;100473.84;;;24.05;100.00
11525;BME280;5819;49.648;8.330;2023-08-17T10:56:32;100471.97;;;24.15;100.00
11525;BME280;5819;49.648;8.330;2023-08-17T10:59:02;100478.38;;;24.22;100.00
11525;BME280;5819;49.648;8.330;2023-08-17T11:01:31;100472.41;;;24.11;100.00
11525;BME280;5819;49.648;8.330;2023-08-17T11:04:12;100471.03;;;24.07;100.00
11525;BME280;5819;49.648;8.330;2023-08-17T11:06:43;100469.50;;;24.32;100.00
11525;BME280;5819;49.648;8.330;2023-08-17T11:09:11;100472.31;;;24.30;100.00
11525;BME280;5819;49.648;8.330;2023-08-17T11:11:39;100458.50;;;24.62;100.00
11525;BME280;5819;49.648;8.330;2023-08-17T11:14:09;100458.50;;;24.97;100.00
11525;BME280;5819;49.648;8.330;2023-08-17T11:16:36;100455.69;;;25.25;100.00
11525;BME280;5819;49.648;8.330;2023-08-17T11:19:04;100468.47;;;24.95;100.00
11525;BME280;5819;49.648;8.330;2023-08-17T11:21:38;100443.22;;;25.51;100.00
11525;BME280;5819;49.648;8.330;2023-08-17T11:24:06;100449.53;;;25.76;100.00
11525;BME280;5819;49.648;8.330;2023-08-17T11:26:36;100434.47;;;26.08;98.94
11525;BME280;5819;49.648;8.330;2023-08-17T11:29:04;100441.50;;;26.18;100.00
11525;BME280;5819;49.648;8.330;2023-08-17T11:31:33;100451.16;;;26.11;99.03
11525;BME280;5819;49.648;8.330;2023-08-17T11:34:01;100454.91;;;25.84;99.16
11525;BME280;5819;49.648;8.330;2023-08-17T11:36:29;100444.47;;;26.06;99.69
11525;BME280;5819;49.648;8.330;2023-08-17T11:38:57;100435.06;;;26.52;99.62
11525;BME280;5819;49.648;8.330;2023-08-17T11:41:25;100442.09;;;26.70;95.07
11525;BME280;5819;49.648;8.330;2023-08-17T11:43:54;100449.44;;;26.51;96.02
11525;BME280;5819;49.648;8.330;2023-08-17T11:46:22;100470.97;;;25.66;100.00
11525;BME280;5819;49.648;8.330;2023-08-17T11:48:58;100486.03;;;25.06;100.00
11525;BME280;5819;49.648;8.330;2023-08-17T11:51:29;100487.41;;;24.75;100.00
11525;BME280;5819;49.648;8.330;2023-08-17T11:53:58;100489.59;;;24.79;100.00
11525;BME280;5819;49.648;8.330;2023-08-17T11:56:26;100489.28;;;24.82;100.00
11525;BME280;5819;49.648;8.330;2023-08-17T11:58:54;100483.03;;;25.09;100.00
11525;BME280;5819;49.648;8.330;2023-08-17T12:01:23;100489.72;;;24.87;100.00
11525;BME280;5819;49.648;8.330;2023-08-17T12:03:51;100473.69;;;25.23;100.00
11525;BME280;5819;49.648;8.330;2023-08-17T12:06:21;100467.19;;;25.77;100.00
11525;BME280;5819;49.648;8.330;2023-08-17T12:08:48;100459.06;;;26.44;96.55
11525;BME280;5819;49.648;8.330;2023-08-17T12:11:16;100457.66;;;26.90;94.52
11525;BME280;5819;49.648;8.330;2023-08-17T12:13:49;100456.06;;;27.44;90.63
11525;BME280;5819;49.648;8.330;2023-08-17T12:16:17;100454.94;;;27.31;90.23
11525;BME280;5819;49.648;8.330;2023-08-17T12:18:47;100468.47;;;27.29;94.54
11525;BME280;5819;49.648;8.330;2023-08-17T12:21:15;100452.22;;;27.63;90.54
11525;BME280;5819;49.648;8.330;2023-08-17T12:23:45;100456.94;;;27.21;91.77
11525;BME280;5819;49.648;8.330;2023-08-17T12:26:18;100455.47;;;27.81;85.21
11525;BME280;5819;49.648;8.330;2023-08-17T12:28:46;100453.25;;;27.93;84.70
11525;BME280;5819;49.648;8.330;2023-08-17T12:31:14;100452.16;;;27.08;84.96
11525;BME280;5819;49.648;8.330;2023-08-17T12:33:49;100468.13;;;26.60;88.88
11525;BME280;5819;49.648;8.330;2023-08-17T12:36:17;100463.88;;;26.25;92.53
11525;BME280;5819;49.648;8.330;2023-08-17T12:38:48;100465.19;;;25.79;99.06
11525;BME280;5819;49.648;8.330;2023-08-17T12:41:16;100452.63;;;25.63;100.00
11525;BME280;5819;49.648;8.330;2023-08-17T12:43:44;100455.28;;;25.11;100.00
11525;BME280;5819;49.648;8.330;2023-08-17T12:46:12;100437.34;;;24.96;100.00
11525;BME280;5819;49.648;8.330;2023-08-17T12:48:41;100437.97;;;24.90;100.00
11525;BME280;5819;49.648;8.330;2023-08-17T12:51:09;100436.06;;;24.82;100.00
11525;BME280;5819;49.648;8.330;2023-08-17T12:53:36;100438.66;;;24.74;100.00
11525;BME280;5819;49.648;8.330;2023-08-17T12:56:05;100432.97;;;24.51;100.00
11525;BME280;5819;49.648;8.330;2023-08-17T12:58:33;100429.69;;;24.40;100.00